Terminal Aerodrome Forecast
Issued by NWS Wilmington, NC

Home | Current Version | Previous Version | Text Only | Print | Product List | Glossary On
Versions: 1 2 3 4 5 6 7 8 9 10 11 12 13 14 15 16 17 18 19 20 21 22 23 24 25 26 27
000
FTUS42 KILM 041700
TAFMYR
TAF
KMYR 041721Z 0418/0518 21015G23KT P6SM SCT012 SCT025 BKN060
     FM050200 20011KT P6SM FEW007 BKN030
     FM051000 22008KT 1 1/2SM BR OVC003
     FM051500 23011KT 4SM BR VCSH BKN003 OVC007=

USA.gov is the U.S. government's official web portal to all federal, state and local government web resources and services.